Time;durP1;ratioP1;P1;durP2;ratioP2;P2;SDS_P1;SDS_P2;PMS_P1;PMS_P2;Temp;Humidity;BMP_temperature;BMP_pressure;BME280_temperature;BME280_humidity;BME280_pressure;Samples;Min_cycle;Max_cycle;Signal;HPM_P1;HPM_P2
2023/04/07 00:00:04;;;;;;;;;1.00;1.00;;;;;;;;5050875;29;8849;-66
2023/04/07 00:02:43;;;;;;;;;0.00;0.00;;;;;;;;5051098;29;11446;-66
2023/04/07 00:05:14;;;;;;;;;0.40;0.40;;;;;;;;5050456;29;8801;-67
2023/04/07 00:07:45;;;;;;;;;0.40;0.40;;;;;;;;5034638;29;8808;-66
2023/04/07 00:10:16;;;;;;;;;0.00;0.00;;;;;;;;5034647;29;8785;-67
2023/04/07 00:12:47;;;;;;;;;0.50;0.50;;;;;;;;5049884;29;11510;-67
2023/04/07 00:15:18;;;;;;;;;0.00;0.00;;;;;;;;5049903;29;8786;-67
2023/04/07 00:17:49;;;;;;;;;0.00;0.00;;;;;;;;5049939;29;8861;-65
2023/04/07 00:20:20;;;;;;;;;0.40;0.40;;;;;;;;5049838;29;8836;-65
2023/04/07 00:23:09;;;;;;;;;4.40;4.40;;;;;;;;5052431;29;8786;-65
2023/04/07 00:25:40;;;;;;;;;6.00;6.00;;;;;;;;5049725;29;8834;-65
2023/04/07 00:28:11;;;;;;;;;8.50;8.50;;;;;;;;5066396;29;12216;-65
2023/04/07 00:30:41;;;;;;;;;6.00;6.00;;;;;;;;5034061;29;8941;-65
2023/04/07 00:33:12;;;;;;;;;6.00;6.00;;;;;;;;5066185;29;8836;-65
2023/04/07 00:35:44;;;;;;;;;7.50;7.50;;;;;;;;5066250;29;8786;-65
2023/04/07 00:38:15;;;;;;;;;5.20;5.20;;;;;;;;5049830;29;8869;-65
2023/04/07 00:40:47;;;;;;;;;3.80;3.80;;;;;;;;5065490;29;8790;-65
2023/04/07 00:43:18;;;;;;;;;3.00;3.00;;;;;;;;5049285;29;8905;-65
2023/04/07 00:45:50;;;;;;;;;2.60;2.60;;;;;;;;5049735;29;8818;-65
2023/04/07 00:48:21;;;;;;;;;1.00;1.00;;;;;;;;5066118;29;8813;-65
2023/04/07 00:50:52;;;;;;;;;1.80;1.80;;;;;;;;5049249;29;8798;-65
2023/04/07 00:53:23;;;;;;;;;3.00;3.00;;;;;;;;5066001;29;8797;-65
2023/04/07 00:55:54;;;;;;;;;5.00;5.00;;;;;;;;5065696;29;8920;-65
2023/04/07 00:58:25;;;;;;;;;3.00;3.00;;;;;;;;5049157;29;10077;-65
2023/04/07 01:01:19;;;;;;;;;4.00;4.00;;;;;;;;5065610;29;11471;-65
2023/04/07 01:04:12;;;;;;;;;4.60;4.60;;;;;;;;5030893;29;8881;-65
2023/04/07 01:06:47;;;;;;;;;2.40;2.40;;;;;;;;5049381;29;8801;-65
2023/04/07 01:09:21;;;;;;;;;5.80;5.80;;;;;;;;5049180;29;8790;-65
2023/04/07 01:12:08;;;;;;;;;4.80;4.80;;;;;;;;5048767;29;8818;-65
2023/04/07 01:14:41;;;;;;;;;1.00;1.00;;;;;;;;5048894;29;8825;-65
2023/04/07 01:17:32;;;;;;;;;1.00;1.00;;;;;;;;5065848;29;9001;-65
2023/04/07 01:20:07;;;;;;;;;1.00;1.00;;;;;;;;5048923;29;8790;-65
2023/04/07 01:22:45;;;;;;;;;0.80;0.80;;;;;;;;5048840;29;8790;-66
2023/04/07 01:25:34;;;;;;;;;2.80;2.80;;;;;;;;5033638;29;8818;-65
2023/04/07 01:28:17;;;;;;;;;1.80;1.80;;;;;;;;5048698;29;8809;-65
2023/04/07 01:30:49;;;;;;;;;1.00;1.00;;;;;;;;5048606;29;8964;-65
2023/04/07 01:33:20;;;;;;;;;0.00;0.00;;;;;;;;5048602;29;8889;-65
2023/04/07 01:35:52;;;;;;;;;0.00;0.00;;;;;;;;5033315;29;8770;-65
2023/04/07 01:38:24;;;;;;;;;0.00;0.00;;;;;;;;5048604;29;8774;-65
2023/04/07 01:41:14;;;;;;;;;0.00;0.00;;;;;;;;5065324;29;8805;-65
2023/04/07 01:43:46;;;;;;;;;0.00;0.00;;;;;;;;5065238;29;8904;-66
2023/04/07 01:46:17;;;;;;;;;0.00;0.00;;;;;;;;5065404;29;8798;-65
2023/04/07 01:48:49;;;;;;;;;0.00;0.00;;;;;;;;5048734;29;8801;-66
2023/04/07 01:51:20;;;;;;;;;0.00;0.00;;;;;;;;5048536;29;11487;-65
2023/04/07 01:53:51;;;;;;;;;0.00;0.00;;;;;;;;5069072;29;9576;-65
2023/04/07 01:56:22;;;;;;;;;0.00;0.00;;;;;;;;5037039;29;11466;-65
2023/04/07 01:58:56;;;;;;;;;0.00;0.00;;;;;;;;5052336;29;8934;-65
2023/04/07 02:01:29;;;;;;;;;0.00;0.00;;;;;;;;5037197;29;8881;-66
2023/04/07 02:04:03;;;;;;;;;0.00;0.00;;;;;;;;5052491;29;8809;-65
2023/04/07 02:07:01;;;;;;;;;0.00;0.00;;;;;;;;5052248;29;8830;-65
2023/04/07 02:09:42;;;;;;;;;0.00;0.00;;;;;;;;5041853;29;9534;-66
2023/04/07 02:12:13;;;;;;;;;0.00;0.00;;;;;;;;5088288;29;8839;-66
2023/04/07 02:14:53;;;;;;;;;0.00;0.00;;;;;;;;5055851;29;8882;-66
2023/04/07 02:17:26;;;;;;;;;0.00;0.00;;;;;;;;5055740;29;8834;-65
2023/04/07 02:19:58;;;;;;;;;0.00;0.00;;;;;;;;5071812;29;8827;-66
2023/04/07 02:22:29;;;;;;;;;0.00;0.00;;;;;;;;5071637;29;8819;-66
2023/04/07 02:25:00;;;;;;;;;0.00;0.00;;;;;;;;5059687;29;8837;-66
2023/04/07 02:27:31;;;;;;;;;0.00;0.00;;;;;;;;5051854;29;8880;-66
2023/04/07 02:30:02;;;;;;;;;0.00;0.00;;;;;;;;5036276;29;8782;-66
2023/04/07 02:32:34;;;;;;;;;0.20;0.20;;;;;;;;5051702;29;8889;-66
2023/04/07 02:35:05;;;;;;;;;0.00;0.00;;;;;;;;5051930;29;8814;-66
2023/04/07 02:37:38;;;;;;;;;0.00;0.00;;;;;;;;5051780;29;8794;-66
2023/04/07 02:40:28;;;;;;;;;0.00;0.00;;;;;;;;5052127;29;8881;-66
2023/04/07 02:42:59;;;;;;;;;0.00;0.00;;;;;;;;5035849;29;8818;-66
2023/04/07 02:45:30;;;;;;;;;0.00;0.00;;;;;;;;5068303;29;12183;-66
2023/04/07 02:48:01;;;;;;;;;0.00;0.00;;;;;;;;5051412;29;8794;-66
2023/04/07 02:50:32;;;;;;;;;0.00;0.00;;;;;;;;5068227;29;8794;-66
2023/04/07 02:53:03;;;;;;;;;1.00;1.00;;;;;;;;5035734;29;8860;-66
2023/04/07 02:55:33;;;;;;;;;0.75;0.75;;;;;;;;5051524;29;8833;-66
2023/04/07 02:58:05;;;;;;;;;0.20;0.20;;;;;;;;5020607;29;8809;-66
2023/04/07 03:00:42;;;;;;;;;0.20;0.20;;;;;;;;5021289;29;8869;-66
2023/04/07 03:03:22;;;;;;;;;1.40;1.40;;;;;;;;5050562;29;9510;-66
2023/04/07 03:06:12;;;;;;;;;0.00;0.00;;;;;;;;5066997;29;8813;-66
2023/04/07 03:08:55;;;;;;;;;0.00;0.00;;;;;;;;5035825;29;8793;-66
2023/04/07 03:11:26;;;;;;;;;0.00;0.00;;;;;;;;5051099;29;8825;-66
2023/04/07 03:13:57;;;;;;;;;0.00;0.00;;;;;;;;5035909;29;8824;-66
2023/04/07 03:16:29;;;;;;;;;0.40;0.40;;;;;;;;5020530;29;10692;-66
2023/04/07 03:19:09;;;;;;;;;0.20;0.20;;;;;;;;5036461;29;8817;-66
2023/04/07 03:21:45;;;;;;;;;0.40;0.40;;;;;;;;5050803;29;8802;-66
2023/04/07 03:24:17;;;;;;;;;0.75;0.75;;;;;;;;5050819;29;8802;-66
2023/04/07 03:26:50;;;;;;;;;1.00;1.00;;;;;;;;5050827;29;11451;-66
2023/04/07 03:29:41;;;;;;;;;1.00;1.00;;;;;;;;5066844;29;8794;-66
2023/04/07 03:32:15;;;;;;;;;0.00;0.00;;;;;;;;5050708;29;8852;-66
2023/04/07 03:35:05;;;;;;;;;2.60;2.60;;;;;;;;5067636;29;9534;-66
2023/04/07 03:37:36;;;;;;;;;2.60;2.60;;;;;;;;5067308;29;8977;-65
2023/04/07 03:40:10;;;;;;;;;47.20;45.80;;;;;;;;5050395;29;9605;-66
2023/04/07 03:42:42;;;;;;;;;6.60;6.60;;;;;;;;5050722;29;8828;-66
2023/04/07 03:45:16;;;;;;;;;7.00;7.00;;;;;;;;5035246;29;8801;-66
2023/04/07 03:47:53;;;;;;;;;3.00;3.00;;;;;;;;5050488;29;8774;-66
2023/04/07 03:50:25;;;;;;;;;0.00;0.00;;;;;;;;5050092;29;8861;-66
2023/04/07 03:53:18;;;;;;;;;0.00;0.00;;;;;;;;5066734;29;8848;-66
2023/04/07 03:55:49;;;;;;;;;16.40;16.40;;;;;;;;5065565;29;8825;-66
2023/04/07 03:58:29;;;;;;;;;6.00;6.00;;;;;;;;5034961;29;8805;-66
2023/04/07 04:01:00;;;;;;;;;3.00;3.00;;;;;;;;5049921;29;8877;-66
2023/04/07 04:03:50;;;;;;;;;3.60;3.60;;;;;;;;5067222;29;9548;-66
2023/04/07 04:06:27;;;;;;;;;0.60;0.60;;;;;;;;5034848;29;8789;-66
2023/04/07 04:09:05;;;;;;;;;8.20;8.20;;;;;;;;5066606;29;8869;-66
2023/04/07 04:11:40;;;;;;;;;70.80;57.80;;;;;;;;5049688;29;8818;-73
2023/04/07 04:14:31;;;;;;;;;83.50;67.50;;;;;;;;5039150;29;8955;-74
2023/04/07 04:17:06;;;;;;;;;15.40;13.80;;;;;;;;5034700;29;8809;-73
2023/04/07 04:19:56;;;;;;;;;13.00;13.00;;;;;;;;5036670;29;9603;-73
2023/04/07 04:22:40;;;;;;;;;20.80;20.80;;;;;;;;5035849;29;8805;-73
2023/04/07 04:25:11;;;;;;;;;66.80;49.00;;;;;;;;5048143;29;8885;-73
2023/04/07 04:27:45;;;;;;;;;152.67;104.00;;;;;;;;5015531;29;8827;-73
2023/04/07 04:30:22;;;;;;;;;86.20;63.60;;;;;;;;5037234;29;9638;-74
2023/04/07 04:32:57;;;;;;;;;8.40;8.40;;;;;;;;5037947;29;8833;-74
2023/04/07 04:35:39;;;;;;;;;0.00;0.00;;;;;;;;5035633;29;8810;-79
2023/04/07 04:38:15;;;;;;;;;0.20;0.20;;;;;;;;5049734;29;8812;-76
2023/04/07 04:40:52;;;;;;;;;0.60;0.60;;;;;;;;5019494;29;9038;-76
2023/04/07 04:43:29;;;;;;;;;0.00;0.00;;;;;;;;5001786;29;8816;-76
2023/04/07 04:46:02;;;;;;;;;1.00;1.00;;;;;;;;5013238;29;8877;-77
2023/04/07 04:48:53;;;;;;;;;0.00;0.00;;;;;;;;5034465;29;8900;-75
2023/04/07 04:51:43;;;;;;;;;0.00;0.00;;;;;;;;5015300;29;8840;-76
2023/04/07 04:54:20;;;;;;;;;1.00;1.00;;;;;;;;5044822;29;8804;-75
2023/04/07 04:57:11;;;;;;;;;2.40;2.40;;;;;;;;5015275;29;8843;-75
2023/04/07 04:59:43;;;;;;;;;1.00;1.00;;;;;;;;5012857;29;8834;-76
2023/04/07 05:02:15;;;;;;;;;2.00;2.00;;;;;;;;5029461;29;8834;-76
2023/04/07 05:04:53;;;;;;;;;7.60;7.60;;;;;;;;5031361;29;8802;-76
2023/04/07 05:07:33;;;;;;;;;1.00;1.00;;;;;;;;5046814;29;9647;-76
2023/04/07 05:10:06;;;;;;;;;0.00;0.00;;;;;;;;5046823;29;9437;-76
2023/04/07 05:12:57;;;;;;;;;1.00;1.00;;;;;;;;5046887;29;8833;-77
2023/04/07 05:15:28;;;;;;;;;30.60;29.80;;;;;;;;5031843;29;9544;-76
2023/04/07 05:18:01;;;;;;;;;105.40;76.60;;;;;;;;5017973;29;8914;-76
2023/04/07 05:20:34;;;;;;;;;3.40;3.40;;;;;;;;5032669;29;8816;-76
2023/04/07 05:23:06;;;;;;;;;0.00;0.00;;;;;;;;5047264;29;8830;-76
2023/04/07 05:25:40;;;;;;;;;26.40;23.00;;;;;;;;5019979;29;8821;-76
2023/04/07 05:28:12;;;;;;;;;71.60;57.80;;;;;;;;5016465;29;8821;-69
2023/04/07 05:30:43;;;;;;;;;1.00;1.00;;;;;;;;5031015;29;8828;-69
2023/04/07 05:33:14;;;;;;;;;29.20;29.20;;;;;;;;5063819;29;8964;-69
2023/04/07 05:35:52;;;;;;;;;1.40;1.40;;;;;;;;5063795;29;8790;-69
2023/04/07 05:38:23;;;;;;;;;9.50;9.25;;;;;;;;5046881;29;8802;-70
2023/04/07 05:40:55;;;;;;;;;1.00;0.80;;;;;;;;5016113;29;8833;-69
2023/04/07 05:43:34;;;;;;;;;1.00;1.00;;;;;;;;5030493;29;8832;-70
2023/04/07 05:46:05;;;;;;;;;0.75;0.75;;;;;;;;5046328;29;8802;-70
2023/04/07 05:48:39;;;;;;;;;0.00;0.00;;;;;;;;5046817;29;9838;-69
2023/04/07 05:51:11;;;;;;;;;1.00;1.00;;;;;;;;5046944;29;8837;-70
2023/04/07 05:53:42;;;;;;;;;3.00;3.00;;;;;;;;5030910;29;8826;-70
2023/04/07 05:56:13;;;;;;;;;2.00;2.00;;;;;;;;5063196;29;11588;-70
2023/04/07 05:58:48;;;;;;;;;3.20;3.20;;;;;;;;5046457;29;8802;-69
2023/04/07 06:01:20;;;;;;;;;0.00;0.00;;;;;;;;5046549;29;8813;-70
2023/04/07 06:03:52;;;;;;;;;0.40;0.40;;;;;;;;5063400;29;8876;-71
2023/04/07 06:06:26;;;;;;;;;2.40;2.40;;;;;;;;5028894;29;8812;-69
2023/04/07 06:08:57;;;;;;;;;1.00;1.00;;;;;;;;5059856;29;8794;-70
2023/04/07 06:11:29;;;;;;;;;2.00;2.00;;;;;;;;5064559;29;8823;-69
2023/04/07 06:14:00;;;;;;;;;7.20;6.20;;;;;;;;5055216;29;8810;-69
2023/04/07 06:16:31;;;;;;;;;0.00;0.00;;;;;;;;5047823;29;8833;-70
2023/04/07 06:19:02;;;;;;;;;6.20;6.20;;;;;;;;5047105;29;11475;-70
2023/04/07 06:21:33;;;;;;;;;6.80;6.80;;;;;;;;5047826;29;8820;-70
2023/04/07 06:24:04;;;;;;;;;1.25;1.25;;;;;;;;5064732;29;8810;-70
2023/04/07 06:26:35;;;;;;;;;0.00;0.00;;;;;;;;5047886;29;9620;-69
2023/04/07 06:29:06;;;;;;;;;0.00;0.00;;;;;;;;5064168;29;8924;-69
2023/04/07 06:31:37;;;;;;;;;0.60;0.60;;;;;;;;5047917;29;8836;-70
2023/04/07 06:34:08;;;;;;;;;0.00;0.00;;;;;;;;5047897;29;8916;-70
2023/04/07 06:36:39;;;;;;;;;5.60;5.60;;;;;;;;5047329;29;9506;-69
2023/04/07 06:39:10;;;;;;;;;0.00;0.00;;;;;;;;5048630;29;9251;-70
2023/04/07 06:42:00;;;;;;;;;2.60;1.60;;;;;;;;5038772;29;8805;-70
2023/04/07 06:44:50;;;;;;;;;0.00;0.00;;;;;;;;5067991;29;8849;-70
2023/04/07 06:47:20;;;;;;;;;0.00;0.00;;;;;;;;5067639;29;8838;-72
2023/04/07 06:49:51;;;;;;;;;0.00;0.00;;;;;;;;5035365;29;11436;-71
2023/04/07 06:52:22;;;;;;;;;0.00;0.00;;;;;;;;5068755;29;11078;-70
2023/04/07 06:54:53;;;;;;;;;0.50;0.50;;;;;;;;5067671;29;8813;-70
2023/04/07 06:57:25;;;;;;;;;0.75;0.00;;;;;;;;5035076;29;10359;-79
2023/04/07 06:59:57;;;;;;;;;1.00;1.00;;;;;;;;5020734;29;9657;-79
2023/04/07 07:02:30;;;;;;;;;11.60;11.20;;;;;;;;5020310;29;8828;-78
2023/04/07 07:05:22;;;;;;;;;0.00;0.00;;;;;;;;5038000;29;8964;-79
2023/04/07 07:07:55;;;;;;;;;0.00;0.00;;;;;;;;5020276;29;8940;-78
2023/04/07 07:10:27;;;;;;;;;0.00;0.00;;;;;;;;5030058;29;8831;-79
2023/04/07 07:12:59;;;;;;;;;3.80;3.80;;;;;;;;5056041;29;8940;-78
2023/04/07 07:15:31;;;;;;;;;0.80;0.80;;;;;;;;5020135;29;9514;-78
2023/04/07 07:18:02;;;;;;;;;3.60;3.60;;;;;;;;5035108;29;8814;-78
2023/04/07 07:20:35;;;;;;;;;2.20;1.60;;;;;;;;5020021;29;8802;-78
2023/04/07 07:23:26;;;;;;;;;1.00;1.00;;;;;;;;5037602;29;8885;-78
2023/04/07 07:25:58;;;;;;;;;1.00;1.00;;;;;;;;5019523;29;8866;-79
2023/04/07 07:28:30;;;;;;;;;2.00;2.00;;;;;;;;5020148;29;8820;-78
2023/04/07 07:31:13;;;;;;;;;0.60;0.60;;;;;;;;5018757;29;8790;-78
2023/04/07 07:34:04;;;;;;;;;1.00;1.00;;;;;;;;5036786;29;8822;-78
2023/04/07 07:36:37;;;;;;;;;0.00;0.00;;;;;;;;5052947;29;8794;-77
2023/04/07 07:39:29;;;;;;;;;18.20;15.20;;;;;;;;5042257;29;9430;-78
2023/04/07 07:42:01;;;;;;;;;0.00;0.00;;;;;;;;5056648;29;8821;-79
2023/04/07 07:44:33;;;;;;;;;0.00;0.00;;;;;;;;5016264;29;8866;-78
2023/04/07 07:47:05;;;;;;;;;1.80;1.80;;;;;;;;5015722;29;8832;-79
2023/04/07 07:49:38;;;;;;;;;13.40;13.40;;;;;;;;5015581;29;8863;-78
2023/04/07 07:52:28;;;;;;;;;0.00;0.00;;;;;;;;5032829;29;8853;-80
2023/04/07 07:55:00;;;;;;;;;0.00;0.00;;;;;;;;5040890;29;8827;-79
2023/04/07 07:57:32;;;;;;;;;0.00;0.00;;;;;;;;5030326;29;8797;-79
2023/04/07 08:00:03;;;;;;;;;1.00;1.00;;;;;;;;5019233;29;8809;-70
2023/04/07 08:02:44;;;;;;;;;92.60;66.20;;;;;;;;5066664;29;8812;-79
2023/04/07 08:05:14;;;;;;;;;0.25;0.25;;;;;;;;5019312;29;8786;-79
2023/04/07 08:07:45;;;;;;;;;0.00;0.00;;;;;;;;5017546;29;11398;-79
2023/04/07 08:10:19;;;;;;;;;2.40;2.40;;;;;;;;5027024;29;8800;-78
2023/04/07 08:12:50;;;;;;;;;2.60;2.60;;;;;;;;5018703;29;8860;-78
2023/04/07 08:15:39;;;;;;;;;2.80;2.80;;;;;;;;5049517;29;8817;-79
2023/04/07 08:18:10;;;;;;;;;0.00;0.00;;;;;;;;5018272;29;8983;-70
2023/04/07 08:20:41;;;;;;;;;1.00;1.00;;;;;;;;5049111;29;8814;-71
2023/04/07 08:23:12;;;;;;;;;1.00;1.00;;;;;;;;5065501;29;8848;-70
2023/04/07 08:26:01;;;;;;;;;0.60;0.60;;;;;;;;5066179;29;11475;-70
2023/04/07 08:28:32;;;;;;;;;0.00;0.00;;;;;;;;5065990;29;9546;-70
2023/04/07 08:31:02;;;;;;;;;0.00;0.00;;;;;;;;5065897;29;8798;-71
2023/04/07 08:33:33;;;;;;;;;1.00;1.00;;;;;;;;5066120;29;8839;-70
2023/04/07 08:36:04;;;;;;;;;1.25;1.25;;;;;;;;5033564;29;8936;-70
2023/04/07 08:38:35;;;;;;;;;0.00;0.00;;;;;;;;5049747;29;8808;-70
2023/04/07 08:41:16;;;;;;;;;1.00;1.00;;;;;;;;5048111;29;11583;-70
2023/04/07 08:43:48;;;;;;;;;0.00;0.00;;;;;;;;5048587;29;8920;-71
2023/04/07 08:46:20;;;;;;;;;13.20;13.20;;;;;;;;5033225;29;8801;-70
2023/04/07 08:49:12;;;;;;;;;6.80;6.80;;;;;;;;5069142;29;8824;-70
2023/04/07 08:51:47;;;;;;;;;2.00;2.00;;;;;;;;5033915;29;8833;-71
2023/04/07 08:54:20;;;;;;;;;6.00;6.00;;;;;;;;5049020;29;8778;-70
2023/04/07 08:57:10;;;;;;;;;3.80;2.80;;;;;;;;5065579;29;8810;-70
2023/04/07 08:59:44;;;;;;;;;6.00;5.00;;;;;;;;5049246;29;8860;-70
2023/04/07 09:02:15;;;;;;;;;1.00;1.00;;;;;;;;5048573;29;8828;-69
2023/04/07 09:05:05;;;;;;;;;1.00;1.00;;;;;;;;5051086;29;8822;-69
2023/04/07 09:07:37;;;;;;;;;2.60;2.60;;;;;;;;5065169;29;8805;-70
2023/04/07 09:10:08;;;;;;;;;5.00;3.40;;;;;;;;5058727;29;8812;-69
2023/04/07 09:12:39;;;;;;;;;14.40;12.40;;;;;;;;5067980;29;9536;-70
2023/04/07 09:15:10;;;;;;;;;0.40;0.40;;;;;;;;5067884;29;8802;-69
2023/04/07 09:17:41;;;;;;;;;1.00;1.00;;;;;;;;5079419;29;8901;-70
2023/04/07 09:20:50;;;;;;;;;0.00;0.00;;;;;;;;5050807;29;9601;-69
2023/04/07 09:23:30;;;;;;;;;0.20;0.20;;;;;;;;5046474;29;8796;-69
2023/04/07 09:26:16;;;;;;;;;1.00;1.00;;;;;;;;5041125;29;8821;-70
2023/04/07 09:28:58;;;;;;;;;0.80;0.80;;;;;;;;5048227;29;8797;-69
2023/04/07 09:31:45;;;;;;;;;0.00;0.00;;;;;;;;5065071;29;8900;-69
2023/04/07 09:34:26;;;;;;;;;1.00;1.00;;;;;;;;5016566;29;8827;-69
2023/04/07 09:36:58;;;;;;;;;0.00;0.00;;;;;;;;5051658;29;8794;-69
2023/04/07 09:39:29;;;;;;;;;6.80;6.80;;;;;;;;5064965;29;8817;-70
2023/04/07 09:42:05;;;;;;;;;1.00;1.00;;;;;;;;5048566;29;8993;-69
2023/04/07 09:44:39;;;;;;;;;0.00;0.00;;;;;;;;5048138;29;8809;-70
2023/04/07 09:47:28;;;;;;;;;6.00;6.00;;;;;;;;5066999;29;8810;-69
2023/04/07 09:50:05;;;;;;;;;8.40;7.80;;;;;;;;5065935;29;8794;-69
2023/04/07 09:52:52;;;;;;;;;3.00;3.00;;;;;;;;5047482;29;8822;-69
2023/04/07 09:55:23;;;;;;;;;1.00;1.00;;;;;;;;5064531;29;8826;-71
2023/04/07 09:57:54;;;;;;;;;0.00;0.00;;;;;;;;5065226;29;8872;-71
2023/04/07 10:00:25;;;;;;;;;10.00;9.80;;;;;;;;5048349;29;8778;-71
2023/04/07 10:02:56;;;;;;;;;74.75;53.75;;;;;;;;5064796;29;8816;-69
2023/04/07 10:05:27;;;;;;;;;1.60;1.00;;;;;;;;5064824;29;8816;-69
2023/04/07 10:08:00;;;;;;;;;1.00;1.00;;;;;;;;5048078;29;8829;-69
2023/04/07 10:10:31;;;;;;;;;1.00;1.00;;;;;;;;5071655;29;8806;-68
2023/04/07 10:13:03;;;;;;;;;0.00;0.00;;;;;;;;5049085;29;8912;-69
2023/04/07 10:15:35;;;;;;;;;6.00;6.00;;;;;;;;5051617;29;8806;-68
2023/04/07 10:18:07;;;;;;;;;4.80;4.80;;;;;;;;5066334;29;8794;-68
2023/04/07 10:20:41;;;;;;;;;1.00;1.00;;;;;;;;5068151;29;8798;-65
2023/04/07 10:23:23;;;;;;;;;0.00;0.00;;;;;;;;5068686;29;8817;-68
2023/04/07 10:25:56;;;;;;;;;1.00;1.00;;;;;;;;5036241;29;9634;-67
2023/04/07 10:28:28;;;;;;;;;2.00;2.00;;;;;;;;5068299;29;8794;-67
2023/04/07 10:30:59;;;;;;;;;1.20;1.20;;;;;;;;5067202;29;8806;-68
2023/04/07 10:33:43;;;;;;;;;0.80;0.80;;;;;;;;5036346;29;8934;-67
2023/04/07 10:36:14;;;;;;;;;1.00;1.00;;;;;;;;5020363;29;8903;-67
2023/04/07 10:39:06;;;;;;;;;0.00;0.00;;;;;;;;5067835;29;8774;-67
2023/04/07 10:41:38;;;;;;;;;1.40;1.40;;;;;;;;5035365;29;8806;-69
2023/04/07 10:44:30;;;;;;;;;0.00;0.00;;;;;;;;5067757;29;8794;-68
2023/04/07 10:47:00;;;;;;;;;0.00;0.00;;;;;;;;5049737;29;8821;-67
2023/04/07 10:49:32;;;;;;;;;59.60;49.80;;;;;;;;5067636;29;8805;-68
2023/04/07 10:52:22;;;;;;;;;3.60;3.60;;;;;;;;5067553;29;8813;-68
2023/04/07 10:55:26;;;;;;;;;1.40;1.40;;;;;;;;5050385;29;8914;-67
2023/04/07 10:58:16;;;;;;;;;12.80;10.60;;;;;;;;5035712;29;8849;-68
2023/04/07 11:00:56;;;;;;;;;1.80;1.80;;;;;;;;5067659;29;8790;-68
2023/04/07 11:03:28;;;;;;;;;2.00;2.00;;;;;;;;5067977;29;8815;-68
2023/04/07 11:06:08;;;;;;;;;0.00;0.00;;;;;;;;5067613;29;8794;-68
2023/04/07 11:08:41;;;;;;;;;2.00;2.00;;;;;;;;5050861;29;8786;-68
2023/04/07 11:11:41;;;;;;;;;1.00;1.00;;;;;;;;5085739;29;8935;-67
2023/04/07 11:14:23;;;;;;;;;2.60;2.60;;;;;;;;5070307;29;8816;-67
2023/04/07 11:17:16;;;;;;;;;1.40;1.40;;;;;;;;5069145;29;8837;-68
2023/04/07 11:19:53;;;;;;;;;5.80;5.80;;;;;;;;5048722;29;8782;-68
2023/04/07 11:22:24;;;;;;;;;1.00;1.00;;;;;;;;5045490;29;8820;-68
2023/04/07 11:24:54;;;;;;;;;1.75;1.75;;;;;;;;5050577;29;9655;-69
2023/04/07 11:27:27;;;;;;;;;4.00;4.00;;;;;;;;5029370;29;8804;-69
2023/04/07 11:29:58;;;;;;;;;8.00;8.00;;;;;;;;5029298;29;8846;-69
2023/04/07 11:32:29;;;;;;;;;15.00;14.60;;;;;;;;5045850;29;8950;-69
2023/04/07 11:35:00;;;;;;;;;1.00;1.00;;;;;;;;5044617;29;8808;-69
2023/04/07 11:37:31;;;;;;;;;33.60;31.20;;;;;;;;5029326;29;8816;-69
2023/04/07 11:40:02;;;;;;;;;43.50;33.25;;;;;;;;5029603;29;8839;-68
2023/04/07 11:42:35;;;;;;;;;19.80;19.80;;;;;;;;5047866;29;10879;-69
2023/04/07 11:45:15;;;;;;;;;20.20;19.40;;;;;;;;5031012;29;8812;-69
2023/04/07 11:48:04;;;;;;;;;53.80;45.00;;;;;;;;5047527;29;8796;-69
2023/04/07 11:50:39;;;;;;;;;16.00;15.60;;;;;;;;5047930;29;8800;-71
2023/04/07 11:53:10;;;;;;;;;20.00;19.20;;;;;;;;5033758;29;8825;-70
2023/04/07 11:55:41;;;;;;;;;15.75;15.75;;;;;;;;5034076;29;8864;-70
2023/04/07 11:58:12;;;;;;;;;10.75;9.75;;;;;;;;5048915;29;10554;-68
2023/04/07 12:00:53;;;;;;;;;8.25;8.25;;;;;;;;5066929;29;9487;-68
2023/04/07 12:03:24;;;;;;;;;3.60;3.60;;;;;;;;5066847;29;8869;-68
2023/04/07 12:05:55;;;;;;;;;2.50;2.50;;;;;;;;5066475;29;8806;-68
2023/04/07 12:08:39;;;;;;;;;8.60;8.40;;;;;;;;5049970;29;11493;-68
2023/04/07 12:11:11;;;;;;;;;11.60;11.60;;;;;;;;5050270;29;8857;-69
2023/04/07 12:13:41;;;;;;;;;4.60;4.60;;;;;;;;5050232;29;8810;-69
2023/04/07 12:16:30;;;;;;;;;2.00;2.00;;;;;;;;5036855;29;8814;-70
2023/04/07 12:19:01;;;;;;;;;1.00;1.00;;;;;;;;5049470;29;8907;-70
2023/04/07 12:21:32;;;;;;;;;3.00;2.75;;;;;;;;5067290;29;10696;-69
2023/04/07 12:24:03;;;;;;;;;1.00;1.00;;;;;;;;5049505;29;11449;-69
2023/04/07 12:26:34;;;;;;;;;1.00;1.00;;;;;;;;5066477;29;11490;-69
2023/04/07 12:29:23;;;;;;;;;2.00;2.00;;;;;;;;5066161;29;10976;-70
2023/04/07 12:31:55;;;;;;;;;1.00;1.00;;;;;;;;5049418;29;8822;-69
2023/04/07 12:34:26;;;;;;;;;9.00;8.80;;;;;;;;5034204;29;8905;-69
2023/04/07 12:36:56;;;;;;;;;1.00;1.00;;;;;;;;5048618;29;8782;-69
2023/04/07 12:39:27;;;;;;;;;1.00;1.00;;;;;;;;5049602;29;9653;-69
2023/04/07 12:41:58;;;;;;;;;1.00;1.00;;;;;;;;5065943;29;8778;-69
2023/04/07 12:44:29;;;;;;;;;12.25;11.25;;;;;;;;5034096;29;9557;-69
2023/04/07 12:47:00;;;;;;;;;1.00;1.00;;;;;;;;5058748;29;8940;-69
2023/04/07 12:49:30;;;;;;;;;3.00;3.00;;;;;;;;5049675;29;8794;-69
2023/04/07 12:52:01;;;;;;;;;9.00;9.00;;;;;;;;5065975;29;8826;-69
2023/04/07 12:54:32;;;;;;;;;4.00;4.00;;;;;;;;5049159;29;8798;-69
2023/04/07 12:57:03;;;;;;;;;1.40;1.40;;;;;;;;5065591;29;8817;-69
2023/04/07 12:59:53;;;;;;;;;1.20;1.20;;;;;;;;5065812;29;8828;-69
2023/04/07 13:02:24;;;;;;;;;1.00;1.00;;;;;;;;5049212;29;8809;-69
2023/04/07 13:05:13;;;;;;;;;0.60;0.60;;;;;;;;5066264;29;8909;-69
2023/04/07 13:07:44;;;;;;;;;1.50;1.50;;;;;;;;5066214;29;8920;-69
2023/04/07 13:10:15;;;;;;;;;3.20;3.20;;;;;;;;5050626;29;8797;-69
2023/04/07 13:12:46;;;;;;;;;0.00;0.00;;;;;;;;5070638;29;8838;-69
2023/04/07 13:15:16;;;;;;;;;2.75;2.75;;;;;;;;5072094;29;8794;-70
2023/04/07 13:17:50;;;;;;;;;6.20;5.40;;;;;;;;5058218;29;9655;-69
2023/04/07 13:20:20;;;;;;;;;2.00;2.00;;;;;;;;5043086;29;8806;-69
2023/04/07 13:22:51;;;;;;;;;1.00;1.00;;;;;;;;5076249;29;8817;-68
2023/04/07 13:25:22;;;;;;;;;0.00;0.00;;;;;;;;5056928;29;8841;-69
2023/04/07 13:27:53;;;;;;;;;3.50;3.00;;;;;;;;5063895;29;8797;-70
2023/04/07 13:30:23;;;;;;;;;5.75;5.75;;;;;;;;5057916;29;8824;-71
2023/04/07 13:32:54;;;;;;;;;7.50;7.50;;;;;;;;5036866;29;8847;-69
2023/04/07 13:35:25;;;;;;;;;18.75;18.75;;;;;;;;5069611;29;8812;-70
2023/04/07 13:37:56;;;;;;;;;2.00;2.00;;;;;;;;5089624;29;8903;-71
2023/04/07 13:40:26;;;;;;;;;22.25;20.00;;;;;;;;5066752;29;8829;-69
2023/04/07 13:42:59;;;;;;;;;2.00;2.00;;;;;;;;5078911;29;8805;-69
2023/04/07 13:45:30;;;;;;;;;42.60;38.00;;;;;;;;5075861;29;8820;-69
2023/04/07 13:48:19;;;;;;;;;70.20;54.40;;;;;;;;5075004;29;8830;-68
2023/04/07 13:50:50;;;;;;;;;58.75;49.00;;;;;;;;5062859;29;8826;-69
2023/04/07 13:53:21;;;;;;;;;21.25;21.25;;;;;;;;5062912;29;8833;-68
2023/04/07 13:55:52;;;;;;;;;67.20;54.00;;;;;;;;5049197;29;8853;-68
2023/04/07 13:58:41;;;;;;;;;3.00;3.00;;;;;;;;5064756;29;8833;-68
2023/04/07 14:01:14;;;;;;;;;2.20;2.20;;;;;;;;5080443;29;8841;-68
2023/04/07 14:04:03;;;;;;;;;32.40;29.80;;;;;;;;5076516;29;8806;-68
2023/04/07 14:06:36;;;;;;;;;3.00;3.00;;;;;;;;5079511;29;8830;-67
2023/04/07 14:09:25;;;;;;;;;15.20;14.20;;;;;;;;5079622;29;8806;-68
2023/04/07 14:11:57;;;;;;;;;40.00;38.00;;;;;;;;5061804;29;8841;-68
2023/04/07 14:14:28;;;;;;;;;45.00;38.60;;;;;;;;5066488;29;8804;-70
2023/04/07 14:16:59;;;;;;;;;4.50;4.25;;;;;;;;5069685;29;8952;-70
2023/04/07 14:19:30;;;;;;;;;6.60;6.40;;;;;;;;5034615;29;8881;-70
2023/04/07 14:22:01;;;;;;;;;7.80;7.80;;;;;;;;5021366;29;8960;-70
2023/04/07 14:24:32;;;;;;;;;20.75;19.75;;;;;;;;5069333;29;9723;-69
2023/04/07 14:27:04;;;;;;;;;4.40;4.40;;;;;;;;5053469;29;8821;-69
2023/04/07 14:29:35;;;;;;;;;3.60;3.60;;;;;;;;5069600;29;8813;-70
2023/04/07 14:32:24;;;;;;;;;3.80;3.20;;;;;;;;5052726;29;8825;-70
2023/04/07 14:34:55;;;;;;;;;15.50;15.00;;;;;;;;5069165;29;8865;-70
2023/04/07 14:37:27;;;;;;;;;30.40;30.40;;;;;;;;5068914;29;8798;-70
2023/04/07 14:40:16;;;;;;;;;9.00;9.00;;;;;;;;5019845;29;8830;-69
2023/04/07 14:42:47;;;;;;;;;4.67;4.67;;;;;;;;5037026;29;8918;-69
2023/04/07 14:45:36;;;;;;;;;2.00;2.00;;;;;;;;5061863;29;8808;-69
2023/04/07 14:48:07;;;;;;;;;3.00;3.00;;;;;;;;5033934;29;8811;-69
2023/04/07 14:50:40;;;;;;;;;9.00;9.00;;;;;;;;5054415;29;8810;-70
2023/04/07 14:53:11;;;;;;;;;79.40;69.60;;;;;;;;5035158;29;11175;-69
2023/04/07 14:55:42;;;;;;;;;13.00;12.33;;;;;;;;5062487;29;8882;-72
2023/04/07 14:58:31;;;;;;;;;3.50;3.50;;;;;;;;5062640;29;9518;-72
2023/04/07 15:01:02;;;;;;;;;3.00;3.00;;;;;;;;5066113;29;8842;-71
2023/04/07 15:03:36;;;;;;;;;4.00;4.00;;;;;;;;5051611;29;8809;-72
2023/04/07 15:06:10;;;;;;;;;2.75;2.75;;;;;;;;5068542;29;8880;-71
2023/04/07 15:08:41;;;;;;;;;5.00;5.00;;;;;;;;5036269;29;8825;-70
2023/04/07 15:11:31;;;;;;;;;7.00;7.00;;;;;;;;5064692;29;9568;-71
2023/04/07 15:14:03;;;;;;;;;14.75;14.75;;;;;;;;5020954;29;8843;-70
2023/04/07 15:16:52;;;;;;;;;21.00;21.00;;;;;;;;5066138;29;8802;-70
2023/04/07 15:19:23;;;;;;;;;13.00;13.00;;;;;;;;5067030;29;8822;-70
2023/04/07 15:21:56;;;;;;;;;16.25;15.50;;;;;;;;5066470;29;8821;-70
2023/04/07 15:24:27;;;;;;;;;90.80;86.40;;;;;;;;5049917;29;8798;-70
2023/04/07 15:26:58;;;;;;;;;38.25;34.00;;;;;;;;5068028;29;9561;-70
2023/04/07 15:29:28;;;;;;;;;15.00;14.25;;;;;;;;5034373;29;8778;-70
2023/04/07 15:31:59;;;;;;;;;15.25;15.25;;;;;;;;5066189;29;8841;-70
2023/04/07 15:34:30;;;;;;;;;25.00;23.00;;;;;;;;5049317;29;8806;-69
2023/04/07 15:37:00;;;;;;;;;157.00;125.67;;;;;;;;5065487;29;9028;-70
2023/04/07 15:39:31;;;;;;;;;48.50;40.25;;;;;;;;5049353;29;8790;-69